Flight Track Log - Related Links

Times and Time Zones

All times are in EDT time to prevent confusion due to time zone crossing. See the SWA311 flight status page for this flight to view local times or setup timezone preferences in your user account.

Time Position Orientation Groundspeed Altitude Reporting Facility
EDT Latitude Longitude Course Direction KTS MPH feet Rate Location/Type
Thu 01:40:11 PM 37.7667 -122.3000 70° East 207 238 3,400  Level Northern Cal TRACON
Thu 01:41:02 PM 37.7975 -122.2931 10° North 216 249 5,400 2,893 Climbing Oakland Center
Thu 01:42:03 PM 37.8194 -122.2044 73° East 261 300 8,800 3,130 Climbing Oakland Center
Thu 01:44:06 PM 37.8714 -121.9686 74° East 337 388 15,000 2,951 Climbing Oakland Center
Thu 01:45:00 PM 37.9757 -121.3184 70° East  Level FlightAware Approximate
Thu 01:45:08 PM 37.8972 -121.8486 75° East 351 404 17,900  Level Oakland Center
Thu 01:46:09 PM 37.9242 -121.7228 75° East 370 426 20,000 2,146 Climbing Oakland Center
Thu 01:47:11 PM 37.9528 -121.5858 75° East 398 458 22,300 2,195 Climbing Oakland Center
Thu 01:48:12 PM 37.9825 -121.4478 75° East 412 474 24,500 1,951 Climbing Oakland Center
Thu 01:49:14 PM 38.0128 -121.3017 75° East 427 491 26,300 1,756 Climbing Oakland Center
Thu 01:50:15 PM 38.0447 -121.1497 75° East 444 511 28,100 1,854 Climbing Oakland Center
Thu 01:51:17 PM 38.0817 -120.9633 76° East 456 525 30,100 1,790 Climbing Oakland Center
Thu 01:52:19 PM 38.1025 -120.8022 81° East 465 535 31,800 1,512 Climbing Oakland Center
Thu 01:53:20 PM 38.1247 -120.6394 80° East 470 541 33,200 1,512 Climbing Oakland Center
Thu 01:54:22 PM 38.1467 -120.4750 80° East 474 545 34,900 878 Climbing Oakland Center
Thu 01:55:23 PM 38.1681 -120.3142 80° East 467 537 35,000 49 Climbing Oakland Center
Thu 01:56:25 PM 38.1897 -120.1514 80° East 467 537 35,000  Level Oakland Center
Thu 01:57:26 PM 38.2094 -119.9903 81° East 464 534 35,000 537 Level Oakland Center
Thu 01:58:28 PM 38.2336 -119.7967 81° East 462 532 36,100 976 Climbing Oakland Center
Thu 01:59:29 PM 38.2547 -119.6331 81° East 468 539 37,000 439 Climbing Oakland Center
Thu 02:00:31 PM 38.2744 -119.4725 81° East 464 534 37,000  Level Oakland Center
Thu 02:01:32 PM 38.2947 -119.3044 81° East 462 532 37,000  Level Oakland Center
Thu 02:02:34 PM 38.3144 -119.1436 81° East 462 532 37,000  Level Oakland Center
Thu 02:03:35 PM 38.3328 -118.9819 82° East 464 534 37,000  Level Oakland Center
Thu 02:04:37 PM 38.3517 -118.8194 82° East 466 536 37,000  Level Oakland Center
Thu 02:05:38 PM 38.3717 -118.6547 81° East 471 542 37,000  Level Oakland Center
Thu 02:06:40 PM 38.3903 -118.4886 82° East 474 545 37,000  Level Oakland Center
Thu 02:08:21 PM 38.4231 -118.1961 82° East 476 548 37,000  Level Salt Lake Center
Thu 02:08:43 PM 38.4306 -118.1231 83° East 476 548 37,000  Level Oakland Center
Thu 02:09:45 PM 38.4489 -117.9625 82° East 475 547 37,000  Level Oakland Center
Thu 02:10:46 PM 38.4667 -117.8006 82° East 463 533 37,000  Level Oakland Center
Thu 02:11:48 PM 38.4833 -117.6372 83° East 463 533 37,000  Level Oakland Center
Thu 02:12:29 PM 38.4975 -117.5050 82° East 464 534 37,000  Level Salt Lake Center
Thu 02:12:49 PM 38.5011 -117.4736 82° East 463 533 37,000  Level Oakland Center
Thu 02:13:31 PM 38.5139 -117.3414 83° East 463 533 37,000  Level Salt Lake Center
Thu 02:14:33 PM 38.5111 -117.1750 91° East 466 536 37,000  Level Salt Lake Center
Thu 02:15:35 PM 38.4969 -117.0086 96° East 466 536 37,000  Level Salt Lake Center
Thu 02:15:54 PM 38.4922 -116.9431 95° East 466 536 37,000  Level Oakland Center
Thu 02:16:55 PM 38.4778 -116.7792 96° East 462 532 37,000  Level Oakland Center
Thu 02:17:57 PM 38.4636 -116.6147 96° East 464 534 37,000  Level Oakland Center
Thu 02:18:40 PM 38.4550 -116.5169 96° East 464 534 37,000  Level Salt Lake Center
Thu 02:19:42 PM 38.4408 -116.3525 96° East 465 535 37,000  Level Salt Lake Center
Thu 02:20:00 PM 38.4339 -116.2867 98° East 465 535 37,000  Level Oakland Center
Thu 02:21:01 PM 38.4189 -116.1214 97° East 468 539 37,000  Level Oakland Center
Thu 02:21:46 PM 38.4075 -115.9900 96° East 468 539 37,000  Level Salt Lake Center
Thu 02:22:48 PM 38.3917 -115.8244 97° East 470 541 37,000  Level Salt Lake Center
Thu 02:23:50 PM 38.3769 -115.6575 96° East 474 545 37,000  Level Salt Lake Center
Thu 02:24:52 PM 38.3608 -115.4914 97° East 473 544 37,000  Level Salt Lake Center
Thu 02:25:53 PM 38.3428 -115.3064 97° East 474 545 37,000  Level Salt Lake Center
Thu 02:26:55 PM 38.3256 -115.1406 97° East 473 544 37,000  Level Salt Lake Center
Thu 02:27:57 PM 38.3097 -114.9742 97° East 475 547 37,000  Level Salt Lake Center
Thu 02:28:59 PM 38.2919 -114.8106 98° East 471 542 37,000  Level Salt Lake Center
Thu 02:30:01 PM 38.2753 -114.6442 97° East 473 544 37,000  Level Salt Lake Center
Thu 02:31:03 PM 38.2589 -114.4783 97° East 473 544 37,000  Level Salt Lake Center
Thu 02:32:05 PM 38.2267 -114.2842 102° East 470 541 37,000  Level Salt Lake Center
Thu 02:33:06 PM 38.1875 -114.1244 107° East 471 542 37,000  Level Salt Lake Center
Thu 02:34:08 PM 38.1506 -113.9639 106° East 474 545 37,000  Level Salt Lake Center
Thu 02:35:10 PM 38.1106 -113.8050 108° East 475 547 37,000  Level Salt Lake Center
Thu 02:36:12 PM 38.0725 -113.6436 107° East 477 549 37,000  Level Salt Lake Center
Thu 02:37:14 PM 38.0333 -113.4822 107° East 480 552 37,000  Level Salt Lake Center
Thu 02:38:16 PM 37.9950 -113.3206 107° East 479 551 37,000  Level Salt Lake Center
Thu 02:39:17 PM 37.9472 -113.1261 107° East 480 552 37,000  Level Salt Lake Center
Thu 02:40:19 PM 37.8875 -112.9725 116° Southeast 485 558 37,000  Level Salt Lake Center
Thu 02:41:21 PM 37.8269 -112.8197 117° Southeast 485 558 37,000 339 Level Salt Lake Center
Thu 02:42:23 PM 37.7783 -112.6586 111° Southeast 484 557 37,700 774 Climbing Salt Lake Center
Thu 02:43:25 PM 37.7325 -112.4931 109° East 492 566 38,600 629 Climbing Salt Lake Center
Thu 02:44:27 PM 37.6856 -112.3300 110° East 492 566 39,000 195 Climbing Salt Lake Center
Thu 02:45:28 PM 37.6392 -112.1689 110° East 490 564 39,000  Level Salt Lake Center
Thu 02:46:30 PM 37.5933 -112.0072 110° East 489 563 39,000  Level Salt Lake Center
Thu 02:47:32 PM 37.5469 -111.8475 110° East 487 560 39,000  Level Salt Lake Center
Thu 02:48:14 PM 37.5106 -111.7189 110° East 487 560 39,000  Level Denver Center
Thu 02:49:16 PM 37.4636 -111.5594 110° East 486 559 39,000  Level Denver Center
Thu 02:50:18 PM 37.4175 -111.4003 110° East 485 558 39,000  Level Denver Center
Thu 02:51:20 PM 37.3697 -111.2411 111° Southeast 487 560 39,000  Level Denver Center
Thu 02:52:22 PM 37.3133 -111.0492 110° East 490 564 39,000  Level Denver Center
Thu 02:53:24 PM 37.2644 -110.8900 111° Southeast 491 565 39,000  Level Denver Center
Thu 02:54:26 PM 37.2164 -110.7286 110° East 496 571 39,000  Level Denver Center
Thu 02:55:28 PM 37.1694 -110.5683 110° East 491 565 39,000  Level Denver Center
Thu 02:56:41 PM 37.1206 -110.4089 111° Southeast 491 565 39,000  Level Denver Center
Thu 02:57:44 PM 37.0611 -110.2153 111° Southeast 498 573 39,000  Level Denver Center
Thu 02:58:46 PM 37.0097 -110.0508 111° Southeast 486 559 39,000  Level Denver Center
Thu 02:59:48 PM 36.9556 -109.8736 111° Southeast 488 562 39,000  Level Denver Center
Thu 03:00:51 PM 36.9008 -109.6975 111° Southeast 488 562 39,000  Level Denver Center
Thu 03:01:53 PM 36.8536 -109.5456 111° Southeast 489 563 39,000  Level Denver Center
Thu 03:02:54 PM 36.8125 -109.4197 112° Southeast 490 564 39,000  Level Denver Center
Thu 03:03:56 PM 36.7489 -109.2153 111° Southeast 496 571 39,000  Level Denver Center
Thu 03:04:58 PM 36.6997 -109.0619 112° Southeast 496 571 39,000  Level Denver Center
Thu 03:06:00 PM 36.6419 -108.8831 112° Southeast 497 572 39,000  Level Denver Center
Thu 03:07:02 PM 36.5928 -108.7278 111° Southeast 499 574 39,000  Level Denver Center
Thu 03:08:04 PM 36.5431 -108.5756 112° Southeast 495 570 39,000  Level Denver Center
Thu 03:09:06 PM 36.4853 -108.3981 112° Southeast 493 567 39,000  Level Denver Center
Thu 03:10:08 PM 36.4364 -108.2469 112° Southeast 491 565 39,000  Level Denver Center
Thu 03:11:09 PM 36.3778 -108.0717 113° Southeast 491 565 39,000  Level Denver Center
Thu 03:12:11 PM 36.3261 -107.9186 113° Southeast 497 572 39,000  Level Denver Center
Thu 03:12:28 PM 36.3094 -107.8700 113° Southeast 494 568 39,000  Level Albuquerque Center
Thu 03:13:30 PM 36.2594 -107.7181 112° Southeast 494 568 39,000  Level Albuquerque Center
Thu 03:14:32 PM 36.1994 -107.5422 113° Southeast 496 571 39,000  Level Albuquerque Center
Thu 03:15:34 PM 36.1500 -107.3919 112° Southeast 494 568 39,000  Level Albuquerque Center
Thu 03:16:35 PM 36.0908 -107.2172 113° Southeast 493 567 39,000  Level Albuquerque Center
Thu 03:17:37 PM 36.0428 -107.0772 113° Southeast 493 567 39,000  Level Albuquerque Center
Thu 03:18:39 PM 35.9911 -106.9233 112° Southeast 487 560 39,000  Level Albuquerque Center
Thu 03:19:41 PM 35.9381 -106.7694 113° Southeast 486 559 39,000  Level Albuquerque Center
Thu 03:20:43 PM 35.8806 -106.6011 113° Southeast 487 560 39,000  Level Albuquerque Center
Thu 03:21:45 PM 35.8219 -106.4322 113° Southeast 483 556 39,000  Level Albuquerque Center
Thu 03:22:47 PM 35.7714 -106.2831 113° Southeast 489 563 39,000  Level Albuquerque Center
Thu 03:23:49 PM 35.7131 -106.1178 113° Southeast 498 573 39,000  Level Albuquerque Center
Thu 03:24:51 PM 35.6578 -105.9628 114° Southeast 497 572 39,000  Level Albuquerque Center
Thu 03:25:53 PM 35.6017 -105.8022 113° Southeast 490 564 39,000  Level Albuquerque Center
Thu 03:26:54 PM 35.5456 -105.6458 114° Southeast 493 567 39,000  Level Albuquerque Center
Thu 03:27:56 PM 35.4883 -105.4906 114° Southeast 495 570 39,000  Level Albuquerque Center
Thu 03:28:58 PM 35.4214 -105.3067 114° Southeast 501 577 39,000  Level Albuquerque Center
Thu 03:30:00 PM 35.3650 -105.1472 113° Southeast 506 582 39,000  Level Albuquerque Center
Thu 03:31:02 PM 35.3064 -104.9869 114° Southeast 511 588 39,000  Level Albuquerque Center
Thu 03:32:04 PM 35.2478 -104.8300 115° Southeast 507 583 39,000  Level Albuquerque Center
Thu 03:33:06 PM 35.1906 -104.6725 114° Southeast 505 581 39,000  Level Albuquerque Center
Thu 03:34:08 PM 35.1358 -104.5200 114° Southeast 502 578 39,000  Level Albuquerque Center
Thu 03:35:09 PM 35.0669 -104.3358 115° Southeast 503 579 39,000  Level Albuquerque Center
Thu 03:36:11 PM 35.0078 -104.1825 115° Southeast 505 581 39,000  Level Albuquerque Center
Thu 03:37:13 PM 34.9517 -104.0275 114° Southeast 502 578 39,000  Level Albuquerque Center
Thu 03:38:15 PM 34.8919 -103.8725 115° Southeast 503 579 39,000  Level Albuquerque Center
Thu 03:39:17 PM 34.8333 -103.7164 115° Southeast 504 580 39,000  Level Albuquerque Center
Thu 03:40:19 PM 34.7742 -103.5611 115° Southeast 504 580 39,000  Level Albuquerque Center
Thu 03:41:21 PM 34.7047 -103.3800 115° Southeast 504 580 39,000  Level Albuquerque Center
Thu 03:42:23 PM 34.6447 -103.2256 115° Southeast 502 578 39,000  Level Albuquerque Center
Thu 03:43:25 PM 34.5850 -103.0714 115° Southeast 501 577 39,000  Level Albuquerque Center
Thu 03:44:27 PM 34.5269 -102.9172 115° Southeast 500 575 39,000  Level Albuquerque Center
Thu 03:45:29 PM 34.4539 -102.7769 122° Southeast 505 581 39,000  Level Albuquerque Center
Thu 03:46:30 PM 34.3689 -102.6456 128° Southeast 498 573 39,000  Level Albuquerque Center
Thu 03:47:32 PM 34.2839 -102.5136 128° Southeast 499 574 39,000  Level Albuquerque Center
Thu 03:48:34 PM 34.1936 -102.3772 129° Southeast 499 574 39,000  Level Albuquerque Center
Thu 03:49:31 PM 34.0969 -102.2364 130° Southeast 500 575 39,000  Level Fort Worth Center
Thu 03:50:32 PM 34.0200 -102.1194 128° Southeast 500 575 39,000  Level Fort Worth Center
Thu 03:51:32 PM 33.9164 -101.9886 134° Southeast 489 563 39,000  Level Fort Worth Center
Thu 03:52:32 PM 33.8189 -101.9136 147° Southeast 472 543 39,000  Level Fort Worth Center
Thu 03:53:32 PM 33.7053 -101.8278 148° Southeast 468 539 39,000  Level Fort Worth Center
Thu 03:54:32 PM 33.5914 -101.7372 146° Southeast 479 551 39,000  Level Fort Worth Center
Thu 03:55:32 PM 33.4714 -101.6517 149° Southeast 473 544 39,000  Level Fort Worth Center
Thu 03:56:32 PM 33.3656 -101.5694 147° Southeast 478 550 39,000  Level Fort Worth Center
Thu 03:57:32 PM 33.2514 -101.4847 148° Southeast 468 539 39,000  Level Fort Worth Center
Thu 03:58:31 PM 33.1414 -101.4053 149° Southeast 468 539 39,000  Level Fort Worth Center
Thu 03:59:32 PM 33.0333 -101.3186 146° Southeast 468 539 39,000  Level Fort Worth Center
Thu 04:00:32 PM 32.9331 -101.2522 151° Southeast 468 539 39,000  Level Fort Worth Center
Thu 04:01:31 PM 32.8228 -101.1733 149° Southeast 468 539 39,000  Level Fort Worth Center
Thu 04:02:32 PM 32.7106 -101.0897 148° Southeast 462 532 39,000  Level Fort Worth Center
Thu 04:03:32 PM 32.5981 -101.0086 149° Southeast 468 539 39,000  Level Fort Worth Center
Thu 04:04:31 PM 32.4733 -100.9175 148° Southeast 475 547 39,000  Level Fort Worth Center
Thu 04:05:32 PM 32.3628 -100.8344 148° Southeast 475 547 39,000  Level Fort Worth Center
Thu 04:06:31 PM 32.2728 -100.7722 150° Southeast 475 547 39,000  Level Fort Worth Center
Thu 04:07:32 PM 32.1375 -100.6739 148° Southeast 475 547 39,000  Level Fort Worth Center
Thu 04:08:31 PM 32.0269 -100.5939 148° Southeast 475 547 39,000  Level Fort Worth Center
Thu 04:09:32 PM 31.9161 -100.5142 149° Southeast 475 547 39,000  Level Fort Worth Center
Thu 04:10:32 PM 31.8033 -100.4322 148° Southeast 475 547 39,000 -868 Level Fort Worth Center
Thu 04:12:11 PM 31.6439 -100.3147 148° Southeast 449 517 36,700 -1,815 Descending Houston Center
Thu 04:13:14 PM 31.5361 -100.2381 149° Southeast 451 519 34,100 -2,880 Descending Houston Center
Thu 04:14:16 PM 31.4047 -100.1453 149° Southeast 459 528 30,700 -2,468 Descending Houston Center
Thu 04:15:18 PM 31.3056 -100.0522 141° Southeast 466 536 29,000 -823 Descending Houston Center
Thu 04:16:20 PM 31.2489 -99.9106 115° Southeast 478 550 29,000  Level Houston Center
Thu 04:17:22 PM 31.1928 -99.7694 115° Southeast 479 551 29,000  Level Houston Center
Thu 04:18:24 PM 31.1358 -99.6272 115° Southeast 482 555 29,000  Level Houston Center
Thu 04:19:26 PM 31.0789 -99.4847 115° Southeast 482 555 29,000  Level Houston Center
Thu 04:20:28 PM 31.0086 -99.3114 115° Southeast 488 562 29,000 -864 Level Houston Center
Thu 04:21:31 PM 30.9514 -99.1717 115° Southeast 480 552 27,200 -1,905 Descending Houston Center
Thu 04:22:34 PM 30.8956 -99.0311 115° Southeast 457 526 25,000 -2,081 Descending Houston Center
Thu 04:23:35 PM 30.8411 -98.9006 116° Southeast 448 516 22,900 -2,049 Descending Houston Center
Thu 04:24:37 PM 30.7931 -98.7717 113° Southeast 435 501 20,800 -1,984 Descending Houston Center
Thu 04:25:39 PM 30.7797 -98.6383 97° East 412 474 18,800 -1,935 Descending Houston Center
Thu 04:26:41 PM 30.7664 -98.5083 97° East 403 464 16,800 -1,935 Descending Houston Center
Thu 04:27:43 PM 30.7525 -98.3822 97° East 393 452 14,800 -2,081 Descending Houston Center
Thu 04:28:45 PM 30.7386 -98.2383 96° East 380 437 12,500 -2,081 Descending Houston Center
Thu 04:29:47 PM 30.7244 -98.1178 98° East 376 433 10,500 -1,258 Descending Houston Center
Thu 04:30:49 PM 30.6819 -98.0167 116° Southeast 356 410 9,900 -768 Descending Houston Center
Thu 04:31:52 PM 30.6294 -97.9308 125° Southeast 332 382 8,900 -1,200 Descending Houston Center
Thu 04:32:54 PM 30.5694 -97.8675 138° Southeast 306 352 7,400 -1,355 Descending Houston Center
Thu 04:33:56 PM 30.4925 -97.8356 160° South 292 336 6,100 -677 Descending Houston Center
Thu 04:34:58 PM 30.4050 -97.8011 161° South 284 327 6,000 -48 Descending Houston Center
Thu 04:36:00 PM 30.3258 -97.7892 173° South 283 326 6,000 -435 Level Houston Center
Thu 04:37:02 PM 30.2542 -97.7747 170° South 267 307 5,100 -823 Descending Houston Center
Thu 04:38:04 PM 30.1878 -97.7611 170° South 248 285 4,300 -677 Descending Houston Center
Thu 04:39:06 PM 30.1233 -97.7536 174° South 236 272 3,700 -768 Descending Houston Center
Thu 04:40:09 PM 30.0769 -97.7303 156° South 214 246 2,700 -720 Descending Houston Center
Thu 04:41:11 PM 30.0972 -97.6811 65° Northeast 188 216 2,200 -677 Descending Houston Center
Thu 04:42:13 PM 30.1428 -97.6756 North 148 170 1,300 -871 Descending Houston Center
Thu 04:44:00 PM 30.1945 -97.6699 North  Level Estimated
Thu 04:51:00 PM 30.1945 -97.6699 221° Southwest  Level Estimated

Login

Don't have an account? Register now (free) for customized features, flight alerts, and more!